createdAt,value
2018-07-28T00:02:18.552Z,26.45
2018-07-28T00:04:49.522Z,26.49
2018-07-28T00:07:20.490Z,26.49
2018-07-28T00:09:51.485Z,26.47
2018-07-28T00:12:22.534Z,26.53
2018-07-28T00:14:53.513Z,26.40
2018-07-28T00:17:24.534Z,26.40
2018-07-28T00:19:55.609Z,26.45
2018-07-28T00:22:26.558Z,26.44
2018-07-28T00:24:57.743Z,26.34
2018-07-28T00:27:28.659Z,26.30
2018-07-28T00:29:59.537Z,26.31
2018-07-28T00:32:30.537Z,26.21
2018-07-28T00:35:01.565Z,26.19
2018-07-28T00:37:32.609Z,25.98
2018-07-28T00:40:03.641Z,26.10
2018-07-28T00:42:34.550Z,25.98
2018-07-28T00:45:06.350Z,25.97
2018-07-28T00:47:37.382Z,25.98
2018-07-28T00:50:11.695Z,26.01
2018-07-28T00:52:42.643Z,26.00
2018-07-28T00:55:13.595Z,25.92
2018-07-28T00:57:44.538Z,25.94
2018-07-28T01:00:15.505Z,25.89
2018-07-28T01:02:46.473Z,25.91
2018-07-28T01:05:17.486Z,25.91
2018-07-28T01:07:48.436Z,25.90
2018-07-28T01:10:19.449Z,25.85
2018-07-28T01:12:50.512Z,25.78
2018-07-28T01:15:21.515Z,25.80
2018-07-28T01:17:52.553Z,25.74
2018-07-28T01:20:23.550Z,25.66
2018-07-28T01:22:54.617Z,25.67
2018-07-28T01:25:25.499Z,25.61
2018-07-28T01:27:56.469Z,25.55
2018-07-28T01:30:32.493Z,25.52
2018-07-28T01:33:03.456Z,25.39
2018-07-28T01:35:34.522Z,25.41
2018-07-28T01:38:05.560Z,25.34
2018-07-28T01:40:36.614Z,25.27
2018-07-28T01:43:07.666Z,25.15
2018-07-28T01:45:38.617Z,25.12
2018-07-28T01:48:09.544Z,25.08
2018-07-28T01:50:40.660Z,25.05
2018-07-28T01:53:11.587Z,25.05
2018-07-28T01:55:42.509Z,25.11
2018-07-28T01:58:13.535Z,24.97
2018-07-28T02:00:44.501Z,24.97
2018-07-28T02:03:15.541Z,24.95
2018-07-28T02:05:46.531Z,24.91
2018-07-28T02:08:17.524Z,24.82
2018-07-28T02:10:48.508Z,24.74
2018-07-28T02:13:19.513Z,24.51
2018-07-28T02:15:50.476Z,24.47
2018-07-28T02:18:21.485Z,24.30
2018-07-28T02:20:52.542Z,24.31
2018-07-28T02:23:23.453Z,24.24
2018-07-28T02:25:54.478Z,24.23
2018-07-28T02:28:25.502Z,24.04
2018-07-28T02:30:56.589Z,23.94
2018-07-28T02:33:27.620Z,24.09
2018-07-28T02:35:58.525Z,23.92
2018-07-28T02:38:29.613Z,23.91
2018-07-28T02:41:00.547Z,23.85
2018-07-28T02:43:31.484Z,23.87
2018-07-28T02:46:02.475Z,23.95
2018-07-28T02:48:33.485Z,23.97
2018-07-28T02:51:04.725Z,23.97
2018-07-28T02:53:35.651Z,23.94
2018-07-28T02:56:06.618Z,23.94
2018-07-28T02:58:37.475Z,23.91
2018-07-28T03:01:09.422Z,23.91
2018-07-28T03:03:41.021Z,23.86
2018-07-28T03:06:12.430Z,23.94
2018-07-28T03:08:44.398Z,23.87
2018-07-28T03:11:15.497Z,23.94
2018-07-28T03:13:46.499Z,23.88
2018-07-28T03:16:17.555Z,23.84
2018-07-28T03:18:48.526Z,23.74
2018-07-28T03:21:20.027Z,23.66
2018-07-28T03:23:51.269Z,23.64
2018-07-28T03:26:22.467Z,23.60
2018-07-28T03:28:53.659Z,23.44
2018-07-28T03:31:24.651Z,23.36
2018-07-28T03:33:56.023Z,23.45
2018-07-28T03:36:27.290Z,23.41
2018-07-28T03:38:59.992Z,23.41
2018-07-28T03:41:31.350Z,23.30
2018-07-28T03:44:02.418Z,23.20
2018-07-28T03:46:33.604Z,23.14
2018-07-28T03:49:04.851Z,22.94
2018-07-28T03:51:35.344Z,22.90
2018-07-28T03:54:06.403Z,22.89
2018-07-28T03:56:37.649Z,23.07
2018-07-28T03:59:09.301Z,23.01
2018-07-28T04:01:40.415Z,23.04
2018-07-28T04:04:11.523Z,23.17
2018-07-28T04:06:42.505Z,23.15
2018-07-28T04:09:13.477Z,23.14
2018-07-28T04:11:44.529Z,23.18
2018-07-28T04:14:15.729Z,23.17
2018-07-28T04:16:46.678Z,23.21
2018-07-28T04:19:17.623Z,23.06
2018-07-28T04:21:48.581Z,23.04
2018-07-28T04:24:19.498Z,23.06
2018-07-28T04:26:50.498Z,23.03
2018-07-28T04:29:21.684Z,23.08
2018-07-28T04:31:52.584Z,22.99
2018-07-28T04:34:23.570Z,23.10
2018-07-28T04:36:54.732Z,23.05
2018-07-28T04:39:25.662Z,23.01
2018-07-28T04:41:56.727Z,23.12
2018-07-28T04:44:28.053Z,23.04
2018-07-28T04:46:59.730Z,23.13
2018-07-28T04:49:30.751Z,23.19
2018-07-28T04:52:01.637Z,23.13
2018-07-28T04:54:32.545Z,23.13
2018-07-28T04:57:03.563Z,23.27
2018-07-28T04:59:34.501Z,23.31
2018-07-28T05:02:05.550Z,23.30
2018-07-28T05:04:36.518Z,23.14
2018-07-28T05:07:08.318Z,23.25
2018-07-28T05:09:39.451Z,23.24
2018-07-28T05:12:10.528Z,23.36
2018-07-28T05:14:41.633Z,23.53
2018-07-28T05:17:12.652Z,23.53
2018-07-28T05:19:43.565Z,23.33
2018-07-28T05:22:14.543Z,23.37
2018-07-28T05:24:45.541Z,23.49
2018-07-28T05:27:16.500Z,23.42
2018-07-28T05:29:47.518Z,23.57
2018-07-28T05:32:18.484Z,23.61
2018-07-28T05:34:49.488Z,23.58
2018-07-28T05:37:20.525Z,23.54
2018-07-28T05:39:51.499Z,23.69
2018-07-28T05:42:22.452Z,23.62
2018-07-28T05:44:53.476Z,23.64
2018-07-28T05:47:24.496Z,23.67
2018-07-28T05:49:55.489Z,24.01
2018-07-28T05:52:26.510Z,24.04
2018-07-28T05:54:57.573Z,24.01
2018-07-28T05:57:28.540Z,23.88
2018-07-28T05:59:59.519Z,23.93
2018-07-28T06:02:30.604Z,23.74
2018-07-28T06:05:01.470Z,24.23
2018-07-28T06:07:32.552Z,24.11
2018-07-28T06:10:04.702Z,24.25
2018-07-28T06:12:35.751Z,24.22
2018-07-28T06:15:15.236Z,24.46
2018-07-28T06:17:56.042Z,24.50
2018-07-28T06:20:29.501Z,24.76
2018-07-28T06:23:00.556Z,24.80
2018-07-28T06:25:31.579Z,24.83
2018-07-28T06:28:02.534Z,24.48
2018-07-28T06:30:33.617Z,24.98
2018-07-28T06:33:04.593Z,24.98
2018-07-28T06:35:35.553Z,25.31
2018-07-28T06:38:06.559Z,24.98
2018-07-28T06:40:37.805Z,25.21
2018-07-28T06:43:09.253Z,25.42
2018-07-28T06:45:40.490Z,25.02
2018-07-28T06:48:11.525Z,25.12
2018-07-28T06:50:42.536Z,25.14
2018-07-28T06:53:13.591Z,25.15
2018-07-28T06:55:44.615Z,25.40
2018-07-28T06:58:15.821Z,25.64
2018-07-28T07:00:46.445Z,25.94
2018-07-28T07:03:17.521Z,26.09
2018-07-28T07:05:48.622Z,26.37
2018-07-28T07:08:19.538Z,26.08
2018-07-28T07:10:50.545Z,26.34
2018-07-28T07:13:21.505Z,26.58
2018-07-28T07:15:52.542Z,26.62
2018-07-28T07:18:23.617Z,26.76
2018-07-28T07:20:54.579Z,26.75
2018-07-28T07:23:25.480Z,26.87
2018-07-28T07:25:56.736Z,26.64
2018-07-28T07:28:27.584Z,26.65
2018-07-28T07:30:58.537Z,26.68
2018-07-28T07:33:29.488Z,26.67
2018-07-28T07:36:00.425Z,26.70
2018-07-28T07:38:31.496Z,26.84
2018-07-28T07:41:02.532Z,26.87
2018-07-28T07:43:33.477Z,27.11
2018-07-28T07:46:04.523Z,26.95
2018-07-28T07:48:37.097Z,27.08
2018-07-28T07:51:08.418Z,27.10
2018-07-28T07:53:39.488Z,26.97
2018-07-28T07:56:10.689Z,27.01
2018-07-28T07:58:44.510Z,27.16
2018-07-28T08:01:15.493Z,27.63
2018-07-28T08:03:46.480Z,27.67
2018-07-28T08:06:17.526Z,27.63
2018-07-28T08:08:48.481Z,27.69
2018-07-28T08:11:19.518Z,27.69
2018-07-28T08:13:50.620Z,27.76
2018-07-28T08:16:22.200Z,27.97
2018-07-28T08:18:53.401Z,28.22
2018-07-28T08:21:25.021Z,28.26
2018-07-28T08:23:56.372Z,28.42
2018-07-28T08:26:27.426Z,28.54
2018-07-28T08:28:58.804Z,28.78
2018-07-28T08:31:29.800Z,29.38
2018-07-28T08:35:10.381Z,29.92
2018-07-28T08:37:41.777Z,29.94
2018-07-28T08:40:12.557Z,29.49
2018-07-28T08:42:43.501Z,29.85
2018-07-28T08:45:14.529Z,29.77
2018-07-28T08:47:45.481Z,28.98
2018-07-28T08:50:16.485Z,29.07
2018-07-28T08:52:47.545Z,29.08
2018-07-28T08:55:18.745Z,28.83
2018-07-28T08:57:49.605Z,28.86
2018-07-28T09:00:20.638Z,28.81
2018-07-28T09:02:51.571Z,28.55
2018-07-28T09:05:22.558Z,28.75
2018-07-28T09:07:53.472Z,28.37
2018-07-28T09:10:24.519Z,28.43
2018-07-28T09:12:55.529Z,28.30
2018-07-28T09:15:26.569Z,28.27
2018-07-28T09:17:57.591Z,28.40
2018-07-28T09:20:28.504Z,28.29
2018-07-28T09:22:59.534Z,28.23
2018-07-28T09:25:30.487Z,28.20
2018-07-28T09:28:01.497Z,28.11
2018-07-28T09:30:32.502Z,28.32
2018-07-28T09:33:04.606Z,27.92
2018-07-28T09:35:35.517Z,28.24
2018-07-28T09:38:06.662Z,28.07
2018-07-28T09:40:37.577Z,28.16
2018-07-28T09:43:08.535Z,28.24
2018-07-28T09:45:39.447Z,28.12
2018-07-28T09:48:10.506Z,28.31
2018-07-28T09:50:43.611Z,28.19
2018-07-28T09:53:14.493Z,28.41
2018-07-28T09:55:45.771Z,28.30
2018-07-28T09:58:17.416Z,28.25
2018-07-28T10:00:53.396Z,28.57
2018-07-28T10:03:24.465Z,28.99
2018-07-28T10:05:55.533Z,28.85
2018-07-28T10:08:26.476Z,29.42
2018-07-28T10:10:57.477Z,29.39
2018-07-28T10:13:29.569Z,29.93
2018-07-28T10:16:00.510Z,30.09
2018-07-28T10:18:31.534Z,30.63
2018-07-28T10:21:02.541Z,30.45
2018-07-28T10:23:33.501Z,30.51
2018-07-28T10:26:04.526Z,31.38
2018-07-28T10:28:35.513Z,30.60
2018-07-28T10:31:06.541Z,31.18
2018-07-28T10:33:37.491Z,31.89
2018-07-28T10:36:09.358Z,31.93
2018-07-28T10:38:40.383Z,32.71
2018-07-28T10:41:11.488Z,33.46
2018-07-28T10:43:49.750Z,32.24
2018-07-28T10:46:29.883Z,31.27
2018-07-28T10:49:00.744Z,32.04
2018-07-28T10:51:31.627Z,31.41
2018-07-28T10:54:02.496Z,31.36
2018-07-28T10:56:33.468Z,31.59
2018-07-28T10:59:04.488Z,30.80
2018-07-28T11:01:35.489Z,30.99
2018-07-28T11:04:06.625Z,31.57
2018-07-28T11:06:37.477Z,31.50
2018-07-28T11:09:10.778Z,31.27
2018-07-28T11:11:41.574Z,31.55
2018-07-28T11:14:12.469Z,32.69
2018-07-28T11:16:43.489Z,32.98
2018-07-28T11:19:14.544Z,32.77
2018-07-28T11:21:45.468Z,33.45
2018-07-28T11:24:16.492Z,32.57
2018-07-28T11:26:47.482Z,32.80
2018-07-28T11:29:19.021Z,32.28
2018-07-28T11:32:13.390Z,32.81
2018-07-28T11:35:07.452Z,32.70
2018-07-28T11:38:37.420Z,32.88
2018-07-28T11:41:31.385Z,33.53
2018-07-28T11:45:17.357Z,34.97
2018-07-28T11:47:49.660Z,32.64
2018-07-28T11:50:20.556Z,34.46
2018-07-28T11:52:52.303Z,34.66
2018-07-28T11:55:23.361Z,34.09
2018-07-28T11:57:54.918Z,34.75
2018-07-28T12:00:26.367Z,35.38
2018-07-28T12:02:57.357Z,35.46
2018-07-28T12:05:29.383Z,34.50
2018-07-28T12:08:00.459Z,35.20
2018-07-28T12:10:31.541Z,35.78
2018-07-28T12:13:02.482Z,36.14
2018-07-28T12:15:33.425Z,34.49
2018-07-28T12:18:04.531Z,35.73
2018-07-28T12:20:35.605Z,35.05
2018-07-28T12:23:06.616Z,35.11
2018-07-28T12:25:37.537Z,34.41
2018-07-28T12:28:08.543Z,34.65
2018-07-28T12:30:39.492Z,34.71
2018-07-28T12:33:10.508Z,35.93
2018-07-28T12:35:41.445Z,35.67
2018-07-28T12:38:12.491Z,34.82
2018-07-28T12:40:43.489Z,34.48
2018-07-28T12:43:14.477Z,34.00
2018-07-28T12:45:45.484Z,34.43
2018-07-28T12:48:16.451Z,34.48
2018-07-28T12:50:47.538Z,33.90
2018-07-28T12:53:18.579Z,33.52
2018-07-28T12:55:49.514Z,33.18
2018-07-28T12:58:20.519Z,33.52
2018-07-28T13:00:52.667Z,33.53
2018-07-28T13:03:23.590Z,33.39
2018-07-28T13:05:54.506Z,33.54
2018-07-28T13:08:25.565Z,33.23
2018-07-28T13:10:56.465Z,33.21
2018-07-28T13:13:27.761Z,33.04
2018-07-28T13:15:58.563Z,32.43
2018-07-28T13:18:29.517Z,32.58
2018-07-28T13:21:00.484Z,32.45
2018-07-28T13:23:31.686Z,33.14
2018-07-28T13:26:02.594Z,33.61
2018-07-28T13:28:33.479Z,32.60
2018-07-28T13:31:04.484Z,32.46
2018-07-28T13:33:35.470Z,32.30
2018-07-28T13:36:06.513Z,31.93
2018-07-28T13:38:37.474Z,32.41
2018-07-28T13:42:15.536Z,31.79
2018-07-28T13:44:46.486Z,32.12
2018-07-28T13:47:17.480Z,31.91
2018-07-28T13:49:48.484Z,31.43
2018-07-28T13:52:19.434Z,31.40
2018-07-28T13:54:50.490Z,29.95
2018-07-28T13:57:21.542Z,29.82
2018-07-28T13:59:52.542Z,29.33
2018-07-28T14:02:23.497Z,29.33
2018-07-28T14:04:54.437Z,28.17
2018-07-28T14:07:25.464Z,27.19
2018-07-28T14:09:56.482Z,27.17
2018-07-28T14:12:27.461Z,26.26
2018-07-28T14:14:58.454Z,26.26
2018-07-28T14:17:29.553Z,26.05
2018-07-28T14:20:00.494Z,25.95
2018-07-28T14:22:31.477Z,26.02
2018-07-28T14:25:02.509Z,26.27
2018-07-28T14:27:33.545Z,26.77
2018-07-28T14:30:04.503Z,26.39
2018-07-28T14:32:35.509Z,26.14
2018-07-28T14:35:07.301Z,26.32
2018-07-28T14:37:38.394Z,26.26
2018-07-28T14:40:09.522Z,26.45
2018-07-28T14:42:40.492Z,26.62
2018-07-28T14:45:12.507Z,26.58
2018-07-28T14:47:43.502Z,27.02
2018-07-28T14:50:14.522Z,27.06
2018-07-28T14:52:47.495Z,27.24
2018-07-28T14:55:18.575Z,27.13
2018-07-28T14:57:49.612Z,27.12
2018-07-28T15:00:20.504Z,27.38
2018-07-28T15:02:51.481Z,27.55
2018-07-28T15:05:22.534Z,27.35
2018-07-28T15:07:53.502Z,27.43
2018-07-28T15:10:24.506Z,27.74
2018-07-28T15:12:55.682Z,27.79
2018-07-28T15:15:27.285Z,27.73
2018-07-28T15:17:58.376Z,27.54
2018-07-28T15:20:29.416Z,27.48
2018-07-28T15:23:00.544Z,27.92
2018-07-28T15:25:31.526Z,28.43
2018-07-28T15:28:02.518Z,28.34
2018-07-28T15:30:33.530Z,28.10
2018-07-28T15:33:04.510Z,28.13
2018-07-28T15:35:35.493Z,28.28
2018-07-28T15:38:06.550Z,28.47
2018-07-28T15:40:37.475Z,28.66
2018-07-28T15:43:08.590Z,29.17
2018-07-28T15:45:39.505Z,29.37
2018-07-28T15:48:10.605Z,29.48
2018-07-28T15:50:41.497Z,29.28
2018-07-28T15:53:12.533Z,29.34
2018-07-28T15:55:43.525Z,29.78
2018-07-28T15:58:14.456Z,29.97
2018-07-28T16:00:45.489Z,29.83
2018-07-28T16:03:16.499Z,29.83
2018-07-28T16:05:48.711Z,29.95
2018-07-28T16:08:20.229Z,29.91
2018-07-28T16:10:51.644Z,30.12
2018-07-28T16:13:23.257Z,29.88
2018-07-28T16:16:06.759Z,29.83
2018-07-28T16:18:40.661Z,30.15
2018-07-28T16:21:13.190Z,29.85
2018-07-28T16:23:45.315Z,29.47
2018-07-28T16:26:18.296Z,29.37
2018-07-28T16:28:49.989Z,29.70
2018-07-28T16:31:21.482Z,29.70
2018-07-28T16:33:52.515Z,29.56
2018-07-28T16:36:23.628Z,29.62
2018-07-28T16:38:54.703Z,29.50
2018-07-28T16:41:26.676Z,29.59
2018-07-28T16:44:04.373Z,29.56
2018-07-28T16:46:35.514Z,29.61
2018-07-28T16:49:07.373Z,29.47
2018-07-28T16:51:38.405Z,29.76
2018-07-28T16:54:09.621Z,29.95
2018-07-28T16:56:40.522Z,29.71
2018-07-28T16:59:11.497Z,29.64
2018-07-28T17:01:42.590Z,29.80
2018-07-28T17:04:15.245Z,29.68
2018-07-28T17:06:46.635Z,29.68
2018-07-28T17:09:17.723Z,29.67
2018-07-28T17:11:48.669Z,29.78
2018-07-28T17:14:19.485Z,29.80
2018-07-28T17:16:50.485Z,29.71
2018-07-28T17:19:21.506Z,29.71
2018-07-28T17:21:52.577Z,29.64
2018-07-28T17:24:23.634Z,29.77
2018-07-28T17:26:54.649Z,29.82
2018-07-28T17:29:25.532Z,29.55
2018-07-28T17:31:56.626Z,29.51
2018-07-28T17:34:27.631Z,29.45
2018-07-28T17:36:58.646Z,29.38
2018-07-28T17:39:29.610Z,29.41
2018-07-28T17:42:00.574Z,29.35
2018-07-28T17:44:31.518Z,29.33
2018-07-28T17:47:03.747Z,29.25
2018-07-28T17:49:34.710Z,29.18
2018-07-28T17:52:06.669Z,29.01
2018-07-28T17:54:38.293Z,28.93
2018-07-28T17:57:15.110Z,28.95
2018-07-28T17:59:46.440Z,28.98
2018-07-28T18:02:17.506Z,28.71
2018-07-28T18:04:48.609Z,28.89
2018-07-28T18:07:19.533Z,28.83
2018-07-28T18:09:50.600Z,28.75
2018-07-28T18:12:21.579Z,28.89
2018-07-28T18:14:52.633Z,28.82
2018-07-28T18:17:23.593Z,28.70
2018-07-28T18:19:54.681Z,28.82
2018-07-28T18:22:25.646Z,28.79
2018-07-28T18:24:56.557Z,28.64
2018-07-28T18:27:27.569Z,28.77
2018-07-28T18:29:58.484Z,28.51
2018-07-28T18:32:29.492Z,28.49
2018-07-28T18:35:00.496Z,28.37
2018-07-28T18:37:31.464Z,28.36
2018-07-28T18:40:02.535Z,28.32
2018-07-28T18:42:33.505Z,28.27
2018-07-28T18:45:04.445Z,28.15
2018-07-28T18:47:35.473Z,28.05
2018-07-28T18:50:07.472Z,28.09
2018-07-28T18:52:38.421Z,28.02
2018-07-28T18:55:09.479Z,27.85
2018-07-28T18:57:40.444Z,27.87
2018-07-28T19:00:11.469Z,27.87
2018-07-28T19:02:42.458Z,27.75
2018-07-28T19:05:13.418Z,27.70
2018-07-28T19:07:44.491Z,27.72
2018-07-28T19:10:15.481Z,27.73
2018-07-28T19:12:51.639Z,27.71
2018-07-28T19:15:22.472Z,27.48
2018-07-28T19:17:58.486Z,27.45
2018-07-28T19:20:29.468Z,27.46
2018-07-28T19:23:05.689Z,27.38
2018-07-28T19:25:36.616Z,27.38
2018-07-28T19:28:12.611Z,27.35
2018-07-28T19:30:43.534Z,27.29
2018-07-28T19:33:14.476Z,27.25
2018-07-28T19:35:50.511Z,27.22
2018-07-28T19:38:21.514Z,27.16
2018-07-28T19:40:52.484Z,27.13
2018-07-28T19:43:23.444Z,27.19
2018-07-28T19:45:54.495Z,27.01
2018-07-28T19:48:25.501Z,27.10
2018-07-28T19:50:56.502Z,26.97
2018-07-28T19:54:55.439Z,27.02
2018-07-28T19:57:26.449Z,26.94
2018-07-28T19:59:57.442Z,26.84
2018-07-28T20:02:28.464Z,26.72
2018-07-28T20:04:59.557Z,26.74
2018-07-28T20:07:30.472Z,26.70
2018-07-28T20:10:01.510Z,26.64
2018-07-28T20:12:32.525Z,26.60
2018-07-28T20:15:03.471Z,26.61
2018-07-28T20:17:34.439Z,26.53
2018-07-28T20:20:05.505Z,26.51
2018-07-28T20:22:36.415Z,26.41
2018-07-28T20:25:07.484Z,26.35
2018-07-28T20:27:38.430Z,26.34
2018-07-28T20:30:09.396Z,26.28
2018-07-28T20:32:41.377Z,26.26
2018-07-28T20:35:12.393Z,26.16
2018-07-28T20:37:43.510Z,26.10
2018-07-28T20:40:14.508Z,26.05
2018-07-28T20:42:45.485Z,26.06
2018-07-28T20:45:16.669Z,25.94
2018-07-28T20:47:47.580Z,25.92
2018-07-28T20:50:18.626Z,25.87
2018-07-28T20:52:49.501Z,26.01
2018-07-28T20:55:20.521Z,25.86
2018-07-28T20:57:51.525Z,25.79
2018-07-28T21:00:22.530Z,25.74
2018-07-28T21:02:53.492Z,25.76
2018-07-28T21:05:24.497Z,25.76
2018-07-28T21:07:55.498Z,25.65
2018-07-28T21:10:26.497Z,25.61
2018-07-28T21:12:57.507Z,25.51
2018-07-28T21:15:28.477Z,25.55
2018-07-28T21:17:59.486Z,25.53
2018-07-28T21:20:30.502Z,25.50
2018-07-28T21:23:01.481Z,25.49
2018-07-28T21:25:32.537Z,25.46
2018-07-28T21:28:03.544Z,25.49
2018-07-28T21:30:34.495Z,25.41
2018-07-28T21:33:05.517Z,25.37
2018-07-28T21:35:36.493Z,25.37
2018-07-28T21:38:08.287Z,25.35
2018-07-28T21:40:39.389Z,25.32
2018-07-28T21:43:10.468Z,25.25
2018-07-28T21:45:41.456Z,25.20
2018-07-28T21:48:12.478Z,25.26
2018-07-28T21:50:43.506Z,25.20
2018-07-28T21:53:14.464Z,25.14
2018-07-28T21:55:45.482Z,25.11
2018-07-28T21:58:16.521Z,25.11
2018-07-28T22:01:07.008Z,25.09
2018-07-28T22:03:38.429Z,24.99
2018-07-28T22:06:09.497Z,24.98
2018-07-28T22:08:40.509Z,24.99
2018-07-28T22:11:11.510Z,24.91
2018-07-28T22:13:42.505Z,24.95
2018-07-28T22:16:13.485Z,24.83
2018-07-28T22:18:44.510Z,24.87
2018-07-28T22:21:15.495Z,24.85
2018-07-28T22:23:46.525Z,24.78
2018-07-28T22:26:17.497Z,24.74
2018-07-28T22:28:48.477Z,24.86
2018-07-28T22:31:19.493Z,24.65
2018-07-28T22:33:50.474Z,24.70
2018-07-28T22:36:21.510Z,24.43
2018-07-28T22:38:52.457Z,24.62
2018-07-28T22:41:23.496Z,24.42
2018-07-28T22:43:54.437Z,24.39
2018-07-28T22:46:25.447Z,24.45
2018-07-28T22:48:56.469Z,24.40
2018-07-28T22:51:27.454Z,24.45
2018-07-28T22:53:58.498Z,24.55
2018-07-28T22:56:29.453Z,24.34
2018-07-28T22:59:00.444Z,24.46
2018-07-28T23:01:31.457Z,24.41
2018-07-28T23:04:02.423Z,24.33
2018-07-28T23:06:33.451Z,24.44
2018-07-28T23:09:05.396Z,24.42
2018-07-28T23:11:37.274Z,24.30
2018-07-28T23:14:08.412Z,24.34
2018-07-28T23:16:39.487Z,24.22
2018-07-28T23:20:38.458Z,24.22
2018-07-28T23:23:09.408Z,24.21
2018-07-28T23:25:40.469Z,24.06
2018-07-28T23:28:11.423Z,24.15
2018-07-28T23:30:42.428Z,24.18
2018-07-28T23:33:13.436Z,24.07
2018-07-28T23:35:44.440Z,24.02
2018-07-28T23:38:15.456Z,24.03
2018-07-28T23:40:47.288Z,23.97
2018-07-28T23:43:18.510Z,24.01
2018-07-28T23:45:49.480Z,24.06
2018-07-28T23:48:20.461Z,24.09
2018-07-28T23:50:51.470Z,23.92
2018-07-28T23:53:22.432Z,24.16
2018-07-28T23:55:53.474Z,23.86
2018-07-28T23:58:24.441Z,23.87
